Time;durP1;ratioP1;P1;durP2;ratioP2;P2;SDS_P1;SDS_P2;PMS_P1;PMS_P2;Temp;Humidity;BMP_temperature;BMP_pressure;BME280_temperature;BME280_humidity;BME280_pressure;Samples;Min_cycle;Max_cycle;Signal;HPM_P1;HPM_P2
2022/04/08 00:00:47;;;;;;;9.13;0.82;;;6.70;99.90;;;;;;7319058;32;20510;-60
2022/04/08 00:04:48;;;;;;;7.65;0.82;;;6.70;99.90;;;;;;7318996;32;21362;-59
2022/04/08 00:08:50;;;;;;;5.35;0.57;;;6.60;99.90;;;;;;7320464;32;20104;-59
2022/04/08 00:12:52;;;;;;;3.40;0.75;;;6.50;99.90;;;;;;7320805;32;20512;-59
2022/04/08 00:16:54;;;;;;;7.03;0.70;;;6.50;99.90;;;;;;7320284;32;20207;-59
2022/04/08 00:20:56;;;;;;;5.05;0.60;;;6.50;99.90;;;;;;7319811;32;20141;-59
2022/04/08 00:24:58;;;;;;;8.25;1.25;;;6.50;99.90;;;;;;7317889;32;20122;-59
2022/04/08 00:29:00;;;;;;;4.72;0.55;;;6.50;99.90;;;;;;7318397;32;20122;-59
2022/04/08 00:33:02;;;;;;;5.07;0.68;;;6.50;99.90;;;;;;7317225;32;20154;-59
2022/04/08 00:37:04;;;;;;;3.30;0.70;;;6.30;99.90;;;;;;7319327;32;20866;-59
2022/04/08 00:41:05;;;;;;;4.20;0.95;;;6.30;99.90;;;;;;7318781;32;20126;-59
2022/04/08 00:45:08;;;;;;;5.40;1.10;;;6.30;99.90;;;;;;7318477;32;20186;-58
2022/04/08 00:49:10;;;;;;;7.32;1.05;;;6.30;99.90;;;;;;7315184;32;20231;-59
2022/04/08 00:53:12;;;;;;;9.20;1.10;;;6.30;99.90;;;;;;7319016;32;20227;-59
2022/04/08 00:57:13;;;;;;;3.80;1.12;;;6.20;99.90;;;;;;7317420;32;20442;-58
2022/04/08 01:01:15;;;;;;;11.38;1.25;;;6.20;99.90;;;;;;7317697;32;20455;-60
2022/04/08 01:05:17;;;;;;;7.25;0.90;;;6.20;99.90;;;;;;7317260;32;20185;-58
2022/04/08 01:09:19;;;;;;;6.55;1.08;;;6.30;99.90;;;;;;7316886;32;20459;-59
2022/04/08 01:13:21;;;;;;;9.75;1.73;;;6.20;99.90;;;;;;7317718;32;20570;-58
2022/04/08 01:17:23;;;;;;;10.70;1.40;;;6.20;99.90;;;;;;7315041;32;20130;-58
2022/04/08 01:21:25;;;;;;;5.62;1.20;;;6.20;99.90;;;;;;7314067;32;20103;-59
2022/04/08 01:25:27;;;;;;;10.95;1.08;;;6.20;99.90;;;;;;7316506;32;20108;-59
2022/04/08 01:29:29;;;;;;;12.37;1.92;;;6.20;99.90;;;;;;7314597;32;20103;-58
2022/04/08 01:33:30;;;;;;;9.25;1.20;;;6.10;99.90;;;;;;7315253;32;20134;-59
2022/04/08 01:37:32;;;;;;;6.82;1.30;;;6.20;99.90;;;;;;7319197;32;20256;-58
2022/04/08 01:41:34;;;;;;;6.03;1.00;;;6.20;99.90;;;;;;7319997;32;20103;-58
2022/04/08 01:45:36;;;;;;;7.22;1.00;;;6.20;99.90;;;;;;7314285;32;20119;-59
2022/04/08 01:49:37;;;;;;;10.75;1.45;;;6.10;99.90;;;;;;7316400;32;20486;-59
2022/04/08 01:53:39;;;;;;;8.73;1.08;;;6.10;99.90;;;;;;7314341;32;20103;-59
2022/04/08 01:57:41;;;;;;;5.32;0.90;;;6.10;99.90;;;;;;7315492;32;20134;-59
2022/04/08 02:01:43;;;;;;;9.25;1.23;;;6.10;99.90;;;;;;7314079;32;20808;-59
2022/04/08 02:05:45;;;;;;;7.65;1.40;;;6.10;99.90;;;;;;7316231;32;20149;-59
2022/04/08 02:09:46;;;;;;;7.60;1.42;;;6.00;99.90;;;;;;7316293;32;20126;-59
2022/04/08 02:13:48;;;;;;;12.13;2.37;;;6.00;99.90;;;;;;7317064;32;20111;-59
2022/04/08 02:17:50;;;;;;;8.70;1.48;;;6.00;99.90;;;;;;7313376;32;20484;-58
2022/04/08 02:21:51;;;;;;;11.88;1.50;;;6.00;99.90;;;;;;7299470;32;20129;-58
2022/04/08 02:25:53;;;;;;;9.80;1.20;;;5.90;99.90;;;;;;7322273;32;20104;-59
2022/04/08 02:29:59;;;;;;;6.40;1.40;;;5.90;99.90;;;;;;7311699;32;20104;-61
2022/04/08 02:34:01;;;;;;;10.70;1.73;;;5.90;99.90;;;;;;7312788;32;20104;-58
2022/04/08 02:38:02;;;;;;;6.82;1.40;;;5.80;99.90;;;;;;7310618;32;20482;-58
2022/04/08 02:42:05;;;;;;;9.52;1.65;;;5.80;99.90;;;;;;7309578;32;20435;-58
2022/04/08 02:46:06;;;;;;;7.85;1.52;;;5.80;99.90;;;;;;7312193;32;20123;-58
2022/04/08 02:50:09;;;;;;;11.77;1.67;;;5.80;99.90;;;;;;7312742;32;20606;-58
2022/04/08 02:54:11;;;;;;;10.95;1.52;;;5.80;99.90;;;;;;7313540;32;20103;-58
2022/04/08 02:58:13;;;;;;;12.52;1.80;;;5.80;99.90;;;;;;7308037;32;20276;-59
2022/04/08 03:02:15;;;;;;;5.50;1.85;;;5.90;99.90;;;;;;7312082;32;20748;-59
2022/04/08 03:06:17;;;;;;;8.73;1.80;;;5.80;99.90;;;;;;7312614;32;20217;-59
2022/04/08 03:10:18;;;;;;;10.80;1.45;;;5.80;99.90;;;;;;7310273;32;20107;-60
2022/04/08 03:14:20;;;;;;;5.28;1.40;;;5.80;99.90;;;;;;7309683;32;20108;-58
2022/04/08 03:18:21;;;;;;;10.40;1.33;;;5.70;99.90;;;;;;7314694;32;20155;-59
2022/04/08 03:22:24;;;;;;;7.72;1.30;;;5.60;99.90;;;;;;7315332;32;20122;-59
2022/04/08 03:26:25;;;;;;;6.78;1.40;;;5.60;99.90;;;;;;7316758;32;20450;-58
2022/04/08 03:30:27;;;;;;;13.32;2.17;;;5.60;99.90;;;;;;7317215;32;20367;-59
2022/04/08 03:34:29;;;;;;;12.77;1.75;;;5.60;99.90;;;;;;7315769;32;20100;-59
2022/04/08 03:38:31;;;;;;;10.48;1.58;;;5.60;99.90;;;;;;7316818;32;20222;-58
2022/04/08 03:42:32;;;;;;;16.37;1.98;;;5.60;99.90;;;;;;7317485;32;20237;-60
2022/04/08 03:46:34;;;;;;;9.85;1.30;;;5.50;99.90;;;;;;7316680;32;20118;-60
2022/04/08 03:50:36;;;;;;;9.15;1.30;;;5.50;99.90;;;;;;7314047;32;20495;-59
2022/04/08 03:54:39;;;;;;;6.30;1.42;;;5.50;99.90;;;;;;7318485;32;20198;-60
2022/04/08 03:58:40;;;;;;;9.63;1.40;;;5.40;99.90;;;;;;7316874;32;20134;-58
2022/04/08 04:02:42;;;;;;;8.55;1.37;;;5.40;99.90;;;;;;7319816;32;20104;-58
2022/04/08 04:06:44;;;;;;;7.03;1.27;;;5.30;99.90;;;;;;7319848;32;20442;-58
2022/04/08 04:10:46;;;;;;;13.40;1.62;;;5.30;99.90;;;;;;7317575;32;20107;-57
2022/04/08 04:14:48;;;;;;;9.10;1.58;;;5.20;99.90;;;;;;7320331;32;20212;-58
2022/04/08 04:18:49;;;;;;;13.40;1.98;;;5.10;99.90;;;;;;7316383;32;20484;-58
2022/04/08 04:22:53;;;;;;;11.18;2.50;;;5.20;99.90;;;;;;7315782;32;20109;-58
2022/04/08 04:26:55;;;;;;;12.63;2.00;;;5.30;99.90;;;;;;7318032;32;20420;-58
2022/04/08 04:30:59;;;;;;;8.63;1.73;;;5.20;99.90;;;;;;7317591;32;20528;-58
2022/04/08 04:35:06;;;;;;;17.33;2.58;;;5.20;99.90;;;;;;7317567;32;20110;-57
2022/04/08 04:39:08;;;;;;;12.15;2.67;;;5.20;99.90;;;;;;7312111;32;20638;-58
2022/04/08 04:43:09;;;;;;;12.48;2.50;;;5.20;99.90;;;;;;7317291;32;20107;-58
2022/04/08 04:47:11;;;;;;;13.45;2.75;;;5.10;99.90;;;;;;7317044;32;20456;-58
2022/04/08 04:51:16;;;;;;;12.45;3.10;;;5.10;99.90;;;;;;7318065;32;20158;-58
2022/04/08 04:55:17;;;;;;;8.45;3.05;;;5.10;99.90;;;;;;7318012;32;20198;-61
2022/04/08 04:59:19;;;;;;;11.38;3.20;;;5.10;99.90;;;;;;7310278;32;20161;-61
2022/04/08 05:03:21;;;;;;;6.57;2.53;;;5.10;99.90;;;;;;7317593;32;20472;-60
2022/04/08 05:07:24;;;;;;;7.82;2.75;;;5.00;99.90;;;;;;7316799;32;20115;-59
2022/04/08 05:11:26;;;;;;;10.15;3.03;;;5.20;99.90;;;;;;7313070;32;20217;-60
2022/04/08 05:15:29;;;;;;;7.65;3.30;;;5.20;99.90;;;;;;7313356;32;20293;-60
2022/04/08 05:19:30;;;;;;;6.53;2.97;;;5.10;99.90;;;;;;7317191;32;20103;-60
2022/04/08 05:23:33;;;;;;;8.27;3.20;;;5.00;99.90;;;;;;7315735;32;20119;-60
2022/04/08 05:27:38;;;;;;;11.82;3.50;;;5.00;99.90;;;;;;7314112;32;20542;-60
2022/04/08 05:31:40;;;;;;;9.43;3.10;;;4.90;99.90;;;;;;7316399;32;20108;-63
2022/04/08 05:35:42;;;;;;;11.02;3.58;;;4.90;99.90;;;;;;7316380;32;20662;-61
2022/04/08 05:39:44;;;;;;;9.48;3.30;;;5.00;99.90;;;;;;7314302;32;20463;-59
2022/04/08 05:43:45;;;;;;;10.20;3.58;;;5.00;99.90;;;;;;7313392;32;20095;-59
2022/04/08 05:47:49;;;;;;;11.07;3.67;;;5.10;99.90;;;;;;7315769;32;20140;-60
2022/04/08 05:51:51;;;;;;;11.88;3.67;;;5.30;99.90;;;;;;7316935;32;20183;-60
2022/04/08 05:55:57;;;;;;;10.25;4.35;;;5.30;99.90;;;;;;7314693;32;20118;-60
2022/04/08 05:59:59;;;;;;;9.35;4.47;;;5.50;99.90;;;;;;7316752;32;20206;-59
2022/04/08 06:04:01;;;;;;;12.68;5.70;;;5.60;99.90;;;;;;7314556;32;20257;-59
2022/04/08 06:08:04;;;;;;;8.98;5.22;;;5.70;99.90;;;;;;7316655;32;20126;-59
2022/04/08 06:12:06;;;;;;;9.32;5.40;;;5.80;99.90;;;;;;7315767;32;20160;-60
2022/04/08 06:16:07;;;;;;;15.13;5.97;;;5.90;99.90;;;;;;7313158;32;20107;-61
2022/04/08 06:20:10;;;;;;;13.75;6.37;;;6.00;99.90;;;;;;7317204;32;20198;-61
2022/04/08 06:24:12;;;;;;;13.52;6.12;;;6.10;99.90;;;;;;7306822;32;20193;-60
2022/04/08 06:28:14;;;;;;;11.57;5.72;;;6.10;99.90;;;;;;7314903;32;20406;-59
2022/04/08 06:32:15;;;;;;;16.02;6.28;;;6.00;99.90;;;;;;7315453;32;20702;-59
2022/04/08 06:36:17;;;;;;;10.80;6.10;;;6.10;99.90;;;;;;7313460;32;20245;-61
2022/04/08 06:40:19;;;;;;;13.85;7.20;;;6.10;99.90;;;;;;7313164;32;20100;-61
2022/04/08 06:44:20;;;;;;;16.17;7.72;;;6.10;99.90;;;;;;7309521;32;20224;-59
2022/04/08 06:48:22;;;;;;;11.27;7.12;;;6.20;99.90;;;;;;7312170;32;20122;-60
2022/04/08 06:52:24;;;;;;;14.57;6.90;;;6.30;99.90;;;;;;7315540;32;20527;-60
2022/04/08 06:56:25;;;;;;;11.82;6.30;;;6.30;99.90;;;;;;7312302;32;20425;-60
2022/04/08 07:00:28;;;;;;;14.15;7.10;;;6.50;99.90;;;;;;7314046;32;21187;-60
2022/04/08 07:04:29;;;;;;;9.32;5.57;;;6.60;99.90;;;;;;7319965;32;20713;-60
2022/04/08 07:08:31;;;;;;;11.65;5.90;;;6.60;99.90;;;;;;7315563;32;20584;-60
2022/04/08 07:12:33;;;;;;;10.88;6.65;;;6.70;99.90;;;;;;7319261;32;20628;-60
2022/04/08 07:16:35;;;;;;;12.48;7.03;;;6.80;99.90;;;;;;7319868;32;20113;-59
2022/04/08 07:20:37;;;;;;;11.10;7.25;;;7.00;99.90;;;;;;7318861;32;20186;-60
2022/04/08 07:24:38;;;;;;;10.77;6.87;;;7.20;99.90;;;;;;7316859;32;20190;-61
2022/04/08 07:28:40;;;;;;;13.52;7.62;;;7.30;99.90;;;;;;7319155;32;20234;-59
2022/04/08 07:32:42;;;;;;;16.12;7.43;;;7.30;99.90;;;;;;7318126;32;20919;-60
2022/04/08 07:36:44;;;;;;;12.05;6.90;;;7.50;99.90;;;;;;7317509;32;20737;-60
2022/04/08 07:40:45;;;;;;;12.82;6.95;;;7.50;99.90;;;;;;7319484;32;20238;-60
2022/04/08 07:44:47;;;;;;;13.32;6.53;;;7.70;99.90;;;;;;7319464;32;20689;-61
2022/04/08 07:48:49;;;;;;;10.48;6.25;;;7.70;99.90;;;;;;7316885;32;20309;-59
2022/04/08 07:52:50;;;;;;;11.52;6.55;;;7.60;99.90;;;;;;7318682;32;20122;-60
2022/04/08 07:56:52;;;;;;;9.13;5.55;;;7.60;99.90;;;;;;7315401;32;20104;-60
2022/04/08 08:00:54;;;;;;;10.70;4.05;;;7.60;99.90;;;;;;7315249;32;20208;-60
2022/04/08 08:04:56;;;;;;;8.48;4.75;;;7.70;99.90;;;;;;7318753;32;20121;-61
2022/04/08 08:08:58;;;;;;;10.20;4.32;;;7.70;99.90;;;;;;7318325;32;20730;-61
2022/04/08 08:13:00;;;;;;;8.90;4.50;;;7.80;99.90;;;;;;7316452;32;20558;-61
2022/04/08 08:17:02;;;;;;;9.20;4.90;;;7.90;99.90;;;;;;7316476;32;20180;-61
2022/04/08 08:21:04;;;;;;;6.18;3.65;;;7.90;99.90;;;;;;7316847;32;20122;-61
2022/04/08 08:25:06;;;;;;;7.15;3.92;;;7.80;99.90;;;;;;7317719;32;20126;-59
2022/04/08 08:29:08;;;;;;;9.30;4.37;;;7.80;99.90;;;;;;7319197;32;20111;-61
2022/04/08 08:33:10;;;;;;;7.32;3.90;;;7.80;99.90;;;;;;7315025;32;20560;-60
2022/04/08 08:37:19;;;;;;;10.05;2.70;;;7.90;99.90;;;;;;7317101;32;20127;-61
2022/04/08 08:41:23;;;;;;;8.38;3.28;;;7.90;99.90;;;;;;7315357;32;20214;-60
2022/04/08 08:45:29;;;;;;;9.27;3.15;;;7.90;99.90;;;;;;7317037;32;20175;-60
2022/04/08 08:49:31;;;;;;;6.62;2.78;;;7.90;99.90;;;;;;7316715;32;20118;-59
2022/04/08 08:53:33;;;;;;;7.03;3.08;;;7.80;99.90;;;;;;7315611;32;20190;-58
2022/04/08 08:57:35;;;;;;;10.75;3.10;;;7.90;99.90;;;;;;7316945;32;20120;-60
2022/04/08 09:01:37;;;;;;;7.35;2.55;;;7.90;99.90;;;;;;7314854;32;20823;-60
2022/04/08 09:05:47;;;;;;;6.87;2.35;;;8.00;99.90;;;;;;7314214;32;20334;-59
2022/04/08 09:09:54;;;;;;;7.82;2.25;;;8.00;99.90;;;;;;7316123;32;20103;-60
2022/04/08 09:14:04;;;;;;;6.05;2.90;;;8.10;99.90;;;;;;7313849;32;20119;-61
2022/04/08 09:18:11;;;;;;;7.00;2.20;;;8.20;99.90;;;;;;7316961;32;20223;-61
2022/04/08 09:22:12;;;;;;;6.87;1.90;;;8.20;99.90;;;;;;7305254;32;20581;-61
2022/04/08 09:26:14;;;;;;;6.85;1.90;;;8.40;99.90;;;;;;7318143;32;20179;-64
2022/04/08 09:30:20;;;;;;;5.47;2.20;;;8.60;99.90;;;;;;7318210;32;20099;-61
2022/04/08 09:34:22;;;;;;;5.25;2.35;;;8.70;99.90;;;;;;7316350;32;20104;-63
2022/04/08 09:38:26;;;;;;;3.60;1.95;;;8.80;99.90;;;;;;7320163;32;20673;-62
2022/04/08 09:42:44;;;;;;;5.53;2.12;;;8.70;99.90;;;;;;7317738;32;20141;-61
2022/04/08 09:46:46;;;;;;;5.07;2.15;;;8.80;99.90;;;;;;7316117;32;20095;-62
2022/04/08 09:50:51;;;;;;;6.00;1.80;;;8.80;99.90;;;;;;7317963;32;20255;-61
2022/04/08 09:54:54;;;;;;;2.35;1.50;;;8.70;99.90;;;;;;7310648;32;20225;-60
2022/04/08 09:59:10;;;;;;;4.45;1.55;;;8.70;99.90;;;;;;7318287;32;20126;-60
2022/04/08 10:03:12;;;;;;;3.97;2.00;;;8.70;99.90;;;;;;7311148;32;20130;-60
2022/04/08 10:07:14;;;;;;;4.65;2.05;;;8.80;99.90;;;;;;7304061;32;20119;-60
2022/04/08 10:11:27;;;;;;;3.12;1.67;;;8.70;99.90;;;;;;7303276;32;20096;-61
2022/04/08 10:15:39;;;;;;;5.12;1.58;;;8.60;99.90;;;;;;7310971;32;20186;-60
2022/04/08 10:19:41;;;;;;;3.25;2.40;;;8.60;99.90;;;;;;7317774;32;20182;-60
2022/04/08 10:23:55;;;;;;;8.00;2.58;;;8.60;99.90;;;;;;7312028;32;20833;-62
2022/04/08 10:27:59;;;;;;;5.37;2.90;;;8.60;99.90;;;;;;7308202;32;20104;-56
2022/04/08 10:32:04;;;;;;;5.60;2.40;;;8.70;99.90;;;;;;7314613;32;20127;-56
2022/04/08 10:36:07;;;;;;;3.10;1.85;;;8.80;99.90;;;;;;7309345;32;20353;-57
2022/04/08 10:40:10;;;;;;;3.20;1.95;;;8.90;99.90;;;;;;7313783;32;20314;-56
2022/04/08 10:44:12;;;;;;;5.15;2.22;;;8.80;99.90;;;;;;7313204;32;21091;-62
2022/04/08 10:48:14;;;;;;;6.53;2.60;;;8.90;99.90;;;;;;7311021;32;20194;-62
2022/04/08 10:52:22;;;;;;;4.60;2.00;;;8.80;99.90;;;;;;7321153;32;20198;-61
2022/04/08 10:56:34;;;;;;;8.25;2.20;;;8.60;99.90;;;;;;7317195;32;20107;-62
2022/04/08 11:00:39;;;;;;;5.00;1.95;;;8.50;99.90;;;;;;7312913;32;20773;-61
2022/04/08 11:04:40;;;;;;;3.42;1.50;;;8.60;99.90;;;;;;7314580;32;20538;-60
2022/04/08 11:08:43;;;;;;;3.33;1.20;;;8.50;99.90;;;;;;7316780;32;20100;-61
2022/04/08 11:12:54;;;;;;;3.45;1.50;;;8.50;99.90;;;;;;7314953;32;20135;-61
2022/04/08 11:16:57;;;;;;;3.30;1.20;;;8.50;99.90;;;;;;7318385;32;20614;-61
2022/04/08 11:20:59;;;;;;;6.72;1.50;;;8.60;99.90;;;;;;7313828;32;20194;-61
2022/04/08 11:25:01;;;;;;;5.43;1.50;;;8.60;99.90;;;;;;7313777;32;20130;-61
2022/04/08 11:29:10;;;;;;;4.68;1.40;;;8.70;99.90;;;;;;7314659;32;20107;-62
2022/04/08 11:33:19;;;;;;;3.20;1.77;;;8.80;99.90;;;;;;7315494;32;20343;-61
2022/04/08 11:37:27;;;;;;;5.55;1.77;;;8.80;99.90;;;;;;7323587;32;20099;-61
2022/04/08 11:41:29;;;;;;;4.15;2.40;;;8.80;99.90;;;;;;7321744;32;20193;-61
2022/04/08 11:45:30;;;;;;;4.97;2.58;;;8.90;99.90;;;;;;7319777;32;20107;-63
2022/04/08 11:49:32;;;;;;;4.75;2.00;;;8.90;99.90;;;;;;7318046;32;20183;-61
2022/04/08 11:53:45;;;;;;;6.70;2.60;;;9.00;99.90;;;;;;7317311;32;20103;-60
2022/04/08 11:57:47;;;;;;;6.82;2.40;;;9.10;99.90;;;;;;7312908;32;20247;-61
2022/04/08 12:01:49;;;;;;;7.72;2.42;;;9.10;99.90;;;;;;7318092;32;20277;-62
2022/04/08 12:05:51;;;;;;;2.83;2.00;;;9.10;99.90;;;;;;7316780;32;20104;-61
2022/04/08 12:10:11;;;;;;;5.18;2.72;;;9.20;99.90;;;;;;7319162;32;20201;-61
2022/04/08 12:14:14;;;;;;;3.90;1.83;;;9.10;99.90;;;;;;7317434;32;20115;-62
2022/04/08 12:18:32;;;;;;;4.55;2.10;;;9.20;99.90;;;;;;7317168;32;20128;-61
2022/04/08 12:22:34;;;;;;;5.35;2.15;;;9.20;99.90;;;;;;7306421;32;20181;-61
2022/04/08 12:26:38;;;;;;;5.50;2.60;;;9.20;99.90;;;;;;7316244;32;20126;-62
2022/04/08 12:30:40;;;;;;;4.32;2.28;;;9.20;99.90;;;;;;7316929;32;20103;-60
2022/04/08 12:34:48;;;;;;;4.28;2.03;;;9.10;99.90;;;;;;7317481;32;20265;-62
2022/04/08 12:38:50;;;;;;;7.53;2.50;;;9.10;99.90;;;;;;7312128;32;20108;-61
2022/04/08 12:42:52;;;;;;;3.53;2.00;;;9.00;99.90;;;;;;7314829;32;20107;-60
2022/04/08 12:46:56;;;;;;;4.12;2.30;;;9.00;99.90;;;;;;7314370;32;20443;-59
2022/04/08 12:50:59;;;;;;;6.37;2.55;;;9.10;99.90;;;;;;7316044;32;20217;-60
2022/04/08 12:55:00;;;;;;;4.78;2.40;;;9.20;99.90;;;;;;7318526;32;20447;-60
2022/04/08 12:59:02;;;;;;;4.57;1.92;;;9.10;99.90;;;;;;7311778;32;20127;-60
2022/04/08 13:03:03;;;;;;;4.65;3.20;;;9.20;99.90;;;;;;7309298;32;20145;-60
2022/04/08 13:07:07;;;;;;;4.82;1.80;;;9.20;99.90;;;;;;7312318;32;20421;-61
2022/04/08 13:11:09;;;;;;;4.12;2.00;;;9.20;99.90;;;;;;7315741;32;20209;-59
2022/04/08 13:15:10;;;;;;;3.08;2.20;;;9.10;99.90;;;;;;7310853;32;20104;-60
2022/04/08 13:19:12;;;;;;;7.20;1.98;;;8.90;99.90;;;;;;7314327;32;20742;-60
2022/04/08 13:23:14;;;;;;;3.78;2.22;;;8.90;99.90;;;;;;7316934;32;20153;-60
2022/04/08 13:27:16;;;;;;;4.40;1.87;;;9.00;99.90;;;;;;7316451;32;20100;-60
2022/04/08 13:31:17;;;;;;;4.65;1.40;;;8.90;99.90;;;;;;7311472;32;20103;-60
2022/04/08 13:35:20;;;;;;;2.87;1.20;;;9.00;99.90;;;;;;7318576;32;20274;-61
2022/04/08 13:39:21;;;;;;;2.65;1.33;;;8.90;99.90;;;;;;7316015;32;20162;-60
2022/04/08 13:43:23;;;;;;;3.08;1.60;;;8.90;99.90;;;;;;7314161;32;20825;-61
2022/04/08 13:47:25;;;;;;;5.72;1.60;;;8.80;99.90;;;;;;7312321;32;20178;-59
2022/04/08 13:51:26;;;;;;;3.00;1.75;;;8.70;99.90;;;;;;7314064;32;20226;-60
2022/04/08 13:55:28;;;;;;;3.15;1.15;;;8.80;99.90;;;;;;7315314;32;20171;-62
2022/04/08 13:59:30;;;;;;;3.60;1.65;;;8.90;99.90;;;;;;7315411;32;20265;-61
2022/04/08 14:03:31;;;;;;;6.25;1.67;;;9.00;99.90;;;;;;7313931;32;20108;-60
2022/04/08 14:07:33;;;;;;;5.10;1.30;;;9.00;99.90;;;;;;7316540;32;20122;-60
2022/04/08 14:11:35;;;;;;;2.20;1.50;;;9.10;99.90;;;;;;7312783;32;20244;-61
2022/04/08 14:15:37;;;;;;;3.22;1.50;;;9.20;99.90;;;;;;7313249;32;20234;-62
2022/04/08 14:19:39;;;;;;;3.55;1.33;;;9.20;99.90;;;;;;7316198;32;20592;-61
2022/04/08 14:23:42;;;;;;;4.37;1.62;;;9.20;99.90;;;;;;7315192;32;20199;-61
2022/04/08 14:27:44;;;;;;;5.15;2.33;;;9.30;99.90;;;;;;7313495;32;20096;-60
2022/04/08 14:31:45;;;;;;;4.78;1.58;;;9.30;99.90;;;;;;7312808;32;20122;-61
2022/04/08 14:35:47;;;;;;;4.15;1.42;;;9.40;99.90;;;;;;7314065;32;21070;-60
2022/04/08 14:39:49;;;;;;;5.10;1.40;;;9.20;99.90;;;;;;7314348;32;20213;-61
2022/04/08 14:43:51;;;;;;;8.05;1.40;;;9.00;99.90;;;;;;7317425;32;20103;-63
2022/04/08 14:47:54;;;;;;;3.85;1.20;;;8.80;99.90;;;;;;7314669;32;20249;-62
2022/04/08 14:51:56;;;;;;;4.22;1.17;;;9.00;99.90;;;;;;7314785;32;20100;-61
2022/04/08 14:55:58;;;;;;;6.53;1.20;;;9.10;99.90;;;;;;7309827;32;20118;-60
2022/04/08 15:00:00;;;;;;;3.95;1.00;;;9.10;99.90;;;;;;7314521;32;20685;-63
2022/04/08 15:04:01;;;;;;;5.05;1.00;;;9.20;99.90;;;;;;7316729;32;20777;-62
2022/04/08 15:08:03;;;;;;;8.48;2.20;;;9.10;99.90;;;;;;7316027;32;20118;-61
2022/04/08 15:12:06;;;;;;;3.78;0.85;;;9.10;99.90;;;;;;7315267;32;20229;-62
2022/04/08 15:16:08;;;;;;;6.18;1.00;;;9.30;99.90;;;;;;7316982;32;20201;-63
2022/04/08 15:20:10;;;;;;;2.50;1.00;;;9.10;99.90;;;;;;7308841;32;20332;-62
2022/04/08 15:24:11;;;;;;;6.50;1.15;;;9.20;99.90;;;;;;7318099;32;20187;-61
2022/04/08 15:28:13;;;;;;;4.22;0.98;;;9.10;99.90;;;;;;7316036;32;20099;-61
2022/04/08 15:32:15;;;;;;;2.65;0.82;;;9.10;99.90;;;;;;7315115;32;20201;-62
2022/04/08 15:36:17;;;;;;;4.93;1.35;;;9.10;99.90;;;;;;7316969;32;20182;-63
2022/04/08 15:40:18;;;;;;;5.05;1.08;;;9.00;99.90;;;;;;7320685;32;20100;-62
2022/04/08 15:44:20;;;;;;;9.23;1.20;;;9.00;99.90;;;;;;7308365;32;20198;-61
2022/04/08 15:48:22;;;;;;;6.10;1.45;;;9.00;99.90;;;;;;7306197;32;20214;-60
2022/04/08 15:52:26;;;;;;;3.67;0.90;;;8.90;99.90;;;;;;7314740;32;20735;-61
2022/04/08 15:56:27;;;;;;;4.90;1.00;;;8.90;99.90;;;;;;7320232;32;20099;-61
2022/04/08 16:00:29;;;;;;;3.62;0.80;;;8.70;99.90;;;;;;7319316;32;20263;-61
2022/04/08 16:04:31;;;;;;;3.47;1.00;;;8.70;99.90;;;;;;7315999;32;20095;-60
2022/04/08 16:08:32;;;;;;;8.05;1.27;;;8.70;99.90;;;;;;7317352;32;20222;-61
2022/04/08 16:12:37;;;;;;;9.85;1.62;;;8.70;99.90;;;;;;7317591;32;20100;-59
2022/04/08 16:16:39;;;;;;;9.05;1.60;;;8.60;99.90;;;;;;7320094;32;20111;-60
2022/04/08 16:20:41;;;;;;;7.30;1.75;;;8.70;99.90;;;;;;7321185;32;20872;-59
2022/04/08 16:24:42;;;;;;;5.45;1.60;;;8.60;99.90;;;;;;7314726;32;20108;-59
2022/04/08 16:28:44;;;;;;;4.37;1.17;;;8.50;99.90;;;;;;7313158;32;20233;-61
2022/04/08 16:32:46;;;;;;;6.28;1.45;;;8.60;99.90;;;;;;7317182;32;20738;-61
2022/04/08 16:36:49;;;;;;;6.95;1.33;;;8.60;99.90;;;;;;7320893;32;20104;-60
2022/04/08 16:40:51;;;;;;;4.60;1.80;;;8.70;99.90;;;;;;7318144;32;20157;-61
2022/04/08 16:44:53;;;;;;;4.00;1.67;;;8.50;99.90;;;;;;7318329;32;20096;-60
2022/04/08 16:48:54;;;;;;;4.47;1.52;;;8.30;99.90;;;;;;7320303;32;20440;-60
2022/04/08 16:52:56;;;;;;;3.97;1.65;;;8.50;99.90;;;;;;7320387;32;20832;-61
2022/04/08 16:56:58;;;;;;;9.73;1.92;;;8.40;99.90;;;;;;7315394;32;20122;-60
2022/04/08 17:01:01;;;;;;;8.05;2.37;;;8.40;99.90;;;;;;7315875;32;20209;-60
2022/04/08 17:05:04;;;;;;;6.10;1.85;;;8.30;99.90;;;;;;7313926;32;20126;-60
2022/04/08 17:09:06;;;;;;;5.15;1.58;;;8.30;99.90;;;;;;7317986;32;20202;-61
2022/04/08 17:13:07;;;;;;;4.62;1.80;;;8.20;99.90;;;;;;7318817;32;20247;-61
2022/04/08 17:17:10;;;;;;;6.55;1.60;;;8.20;99.90;;;;;;7315028;32;20813;-60
2022/04/08 17:21:12;;;;;;;4.62;1.73;;;8.20;99.90;;;;;;7316960;32;20164;-60
2022/04/08 17:25:13;;;;;;;3.90;1.83;;;8.00;99.90;;;;;;7305474;32;20141;-57
2022/04/08 17:29:15;;;;;;;4.68;1.70;;;7.90;99.90;;;;;;7315853;32;20131;-59
2022/04/08 17:33:17;;;;;;;7.43;2.03;;;7.90;99.90;;;;;;7314367;32;20150;-60
2022/04/08 17:37:18;;;;;;;9.43;2.08;;;8.00;99.90;;;;;;7318902;32;20126;-60
2022/04/08 17:41:21;;;;;;;7.53;1.83;;;7.90;99.90;;;;;;7306414;32;20191;-60
2022/04/08 17:45:23;;;;;;;8.32;2.15;;;7.80;99.90;;;;;;7316784;32;22527;-62
2022/04/08 17:49:24;;;;;;;3.08;1.58;;;7.70;99.90;;;;;;7318832;32;20538;-60
2022/04/08 17:53:27;;;;;;;10.23;2.30;;;7.60;99.90;;;;;;7313549;32;22208;-60
2022/04/08 17:57:29;;;;;;;4.75;1.85;;;7.50;99.90;;;;;;7316985;32;20519;-61
2022/04/08 18:01:32;;;;;;;6.87;2.30;;;7.50;99.90;;;;;;7315976;32;20100;-61
2022/04/08 18:05:34;;;;;;;7.18;2.65;;;7.40;99.90;;;;;;7307917;32;20691;-59
2022/04/08 18:09:55;;;;;;;8.35;2.28;;;7.40;99.90;;;;;;7313521;32;20213;-60
2022/04/08 18:13:58;;;;;;;6.05;2.80;;;7.30;99.90;;;;;;7315671;32;20103;-60
2022/04/08 18:18:00;;;;;;;6.75;2.20;;;7.30;99.90;;;;;;7318213;32;20100;-58
2022/04/08 18:22:02;;;;;;;8.40;2.47;;;7.20;99.90;;;;;;7312157;32;20103;-59
2022/04/08 18:26:03;;;;;;;8.15;2.47;;;7.20;99.90;;;;;;7312824;32;20186;-58
2022/04/08 18:30:06;;;;;;;6.65;2.65;;;7.10;99.90;;;;;;7316717;32;20523;-57
2022/04/08 18:34:10;;;;;;;6.45;2.97;;;7.00;99.90;;;;;;7318687;32;20143;-59
2022/04/08 18:38:12;;;;;;;6.93;3.30;;;7.00;99.90;;;;;;7315909;32;20191;-58
2022/04/08 18:42:14;;;;;;;6.35;3.87;;;7.00;99.90;;;;;;7316721;32;20096;-59
2022/04/08 18:46:16;;;;;;;8.77;3.60;;;6.90;99.90;;;;;;7314699;32;20104;-59
2022/04/08 18:50:18;;;;;;;5.85;2.95;;;6.80;99.90;;;;;;7317595;32;20180;-62
2022/04/08 18:54:20;;;;;;;9.27;2.78;;;6.70;99.90;;;;;;7319496;32;20760;-61
2022/04/08 18:58:21;;;;;;;6.97;2.67;;;6.70;99.90;;;;;;7321352;32;20237;-61
2022/04/08 19:02:23;;;;;;;11.20;5.87;;;6.50;99.90;;;;;;7317948;32;20553;-61
2022/04/08 19:06:25;;;;;;;5.90;3.95;;;6.50;99.90;;;;;;7329445;32;20171;-62
2022/04/08 19:10:27;;;;;;;12.20;4.15;;;6.40;99.90;;;;;;7310787;32;20137;-61
2022/04/08 19:14:28;;;;;;;7.75;3.75;;;6.50;99.90;;;;;;7319480;32;20245;-60
2022/04/08 19:18:30;;;;;;;8.02;3.72;;;6.50;99.90;;;;;;7313720;32;20103;-59
2022/04/08 19:22:33;;;;;;;9.60;3.45;;;6.50;99.90;;;;;;7323073;32;20275;-60
2022/04/08 19:26:35;;;;;;;9.95;4.43;;;6.50;99.90;;;;;;7308260;32;20117;-62
2022/04/08 19:30:37;;;;;;;7.50;3.85;;;6.50;99.90;;;;;;7320990;32;20241;-59
2022/04/08 19:34:40;;;;;;;13.70;6.90;;;6.50;99.90;;;;;;7322370;32;20099;-60
2022/04/08 19:38:45;;;;;;;9.65;2.50;;;6.60;99.90;;;;;;7321834;32;20466;-59
2022/04/08 19:42:47;;;;;;;9.68;3.20;;;6.80;99.90;;;;;;7323568;32;20175;-60
2022/04/08 19:46:49;;;;;;;6.40;1.70;;;6.70;99.90;;;;;;7321753;32;20127;-59
2022/04/08 19:50:51;;;;;;;7.80;2.33;;;6.80;99.90;;;;;;7314751;32;20525;-60
2022/04/08 19:54:53;;;;;;;4.82;1.08;;;6.80;99.90;;;;;;7318646;32;20478;-60
2022/04/08 19:58:54;;;;;;;4.53;1.33;;;6.80;99.90;;;;;;7320840;32;20107;-59
2022/04/08 20:02:56;;;;;;;3.50;1.05;;;6.80;99.90;;;;;;7318970;32;20937;-60
2022/04/08 20:06:58;;;;;;;4.57;0.90;;;6.70;99.90;;;;;;7320684;32;20523;-61
2022/04/08 20:11:00;;;;;;;3.85;1.10;;;6.70;99.90;;;;;;7317448;32;20905;-62
2022/04/08 20:15:02;;;;;;;11.32;1.40;;;6.70;99.90;;;;;;7322452;32;20183;-60
2022/04/08 20:19:03;;;;;;;6.85;1.37;;;6.70;99.90;;;;;;7321037;32;20104;-61
2022/04/08 20:23:05;;;;;;;5.78;2.10;;;6.70;99.90;;;;;;7312062;32;20100;-60
2022/04/08 20:27:07;;;;;;;5.20;1.00;;;6.70;99.90;;;;;;7316173;32;20219;-61
2022/04/08 20:31:08;;;;;;;3.97;0.90;;;6.60;99.90;;;;;;7318158;32;20108;-60
2022/04/08 20:35:10;;;;;;;3.12;1.23;;;6.60;99.90;;;;;;7320075;32;20142;-60
2022/04/08 20:39:12;;;;;;;5.20;1.42;;;6.60;99.90;;;;;;7320555;32;20495;-61
2022/04/08 20:43:14;;;;;;;5.30;1.37;;;6.50;99.90;;;;;;7319451;32;20099;-59
2022/04/08 20:47:16;;;;;;;4.85;1.15;;;6.50;99.90;;;;;;7320202;32;20111;-61
2022/04/08 20:51:18;;;;;;;5.53;1.20;;;6.50;99.90;;;;;;7315956;32;20740;-60
2022/04/08 20:55:20;;;;;;;7.82;1.00;;;6.40;99.90;;;;;;7309344;32;20732;-58
2022/04/08 20:59:23;;;;;;;8.23;1.33;;;6.50;99.90;;;;;;7315141;32;20567;-61
2022/04/08 21:03:26;;;;;;;7.53;1.67;;;6.50;99.90;;;;;;7320944;32;20129;-60
2022/04/08 21:07:28;;;;;;;5.80;1.00;;;6.50;99.90;;;;;;7318363;32;20119;-60
2022/04/08 21:11:29;;;;;;;4.00;0.82;;;6.40;99.90;;;;;;7314105;32;20824;-60
2022/04/08 21:15:31;;;;;;;5.10;1.20;;;6.40;99.90;;;;;;7319544;32;20103;-59